Time;durP1;ratioP1;P1;durP2;ratioP2;P2;SDS_P1;SDS_P2;PMS_P1;PMS_P2;Temp;Humidity;BMP_temperature;BMP_pressure;BME280_temperature;BME280_humidity;BME280_pressure;Samples;Min_cycle;Max_cycle;Signal;HPM_P1;HPM_P2
2023/06/15 00:00:19;;;;;;;6.70;3.33;;;16.10;87.90;;;;;;5063676;28;20056;-65
2023/06/15 00:02:45;;;;;;;8.68;3.20;;;16.10;88.20;;;;;;5046822;28;20109;-65
2023/06/15 00:05:11;;;;;;;8.82;3.40;;;16.00;88.30;;;;;;5063573;28;20459;-67
2023/06/15 00:07:36;;;;;;;14.40;3.35;;;16.00;88.60;;;;;;5048024;28;20044;-66
2023/06/15 00:10:03;;;;;;;8.25;3.20;;;16.00;88.80;;;;;;5055261;28;20081;-67
2023/06/15 00:12:29;;;;;;;7.97;3.10;;;15.90;89.00;;;;;;5086981;28;20075;-66
2023/06/15 00:14:54;;;;;;;9.55;3.25;;;15.90;89.30;;;;;;5087936;28;20075;-67
2023/06/15 00:17:21;;;;;;;10.35;3.45;;;15.90;89.60;;;;;;5087397;28;20059;-67
2023/06/15 00:19:47;;;;;;;10.15;3.20;;;15.90;90.00;;;;;;5070386;28;20044;-66
2023/06/15 00:22:15;;;;;;;10.43;3.53;;;15.90;90.10;;;;;;5069426;28;20445;-67
2023/06/15 00:24:44;;;;;;;10.55;3.42;;;15.80;90.30;;;;;;5052555;28;20123;-66
2023/06/15 00:27:10;;;;;;;8.65;3.85;;;15.80;90.40;;;;;;5069073;28;20174;-66
2023/06/15 00:29:37;;;;;;;12.43;3.50;;;15.80;90.50;;;;;;5087120;28;20059;-67
2023/06/15 00:32:06;;;;;;;12.30;3.80;;;15.80;90.60;;;;;;5070401;28;20662;-65
2023/06/15 00:34:32;;;;;;;10.07;4.25;;;15.80;90.80;;;;;;5070479;28;20040;-67
2023/06/15 00:36:58;;;;;;;9.98;3.50;;;15.70;91.00;;;;;;5048153;28;20510;-65
2023/06/15 00:39:24;;;;;;;12.95;3.70;;;15.70;91.20;;;;;;5083014;28;20044;-67
2023/06/15 00:41:49;;;;;;;12.00;4.30;;;15.70;91.40;;;;;;5067230;28;20052;-66
2023/06/15 00:44:15;;;;;;;10.57;4.00;;;15.70;91.50;;;;;;5066879;28;20392;-67
2023/06/15 00:46:41;;;;;;;12.50;4.07;;;15.70;91.80;;;;;;5066659;28;20132;-67
2023/06/15 00:49:08;;;;;;;7.65;3.22;;;15.60;91.90;;;;;;5050090;28;20036;-66
2023/06/15 00:51:38;;;;;;;8.30;3.97;;;15.60;92.10;;;;;;5065620;28;20086;-65
2023/06/15 00:54:05;;;;;;;8.20;3.67;;;15.60;92.40;;;;;;5049546;28;20051;-66
2023/06/15 00:56:31;;;;;;;12.63;3.70;;;15.60;92.60;;;;;;5084063;28;20040;-65
2023/06/15 00:58:57;;;;;;;11.50;4.47;;;15.60;92.70;;;;;;5068651;28;20059;-63
2023/06/15 01:01:24;;;;;;;10.93;4.13;;;15.60;92.90;;;;;;5083491;28;20249;-65
2023/06/15 01:03:50;;;;;;;13.75;4.68;;;15.60;93.20;;;;;;5066589;28;20103;-64
2023/06/15 01:06:19;;;;;;;10.35;4.60;;;15.50;93.20;;;;;;5083903;28;20124;-65
2023/06/15 01:08:47;;;;;;;10.38;4.57;;;15.50;93.60;;;;;;5068707;28;20472;-63
2023/06/15 01:11:15;;;;;;;8.85;4.10;;;15.50;93.60;;;;;;5069902;28;20047;-65
2023/06/15 01:13:44;;;;;;;12.50;4.70;;;15.50;93.70;;;;;;5064576;28;20055;-65
2023/06/15 01:16:24;;;;;;;9.30;3.92;;;15.50;94.00;;;;;;5069634;28;20147;-63
2023/06/15 01:18:57;;;;;;;12.13;4.20;;;15.50;94.10;;;;;;5063501;28;20044;-65
2023/06/15 01:21:28;;;;;;;8.80;4.10;;;15.50;94.20;;;;;;5064887;28;20789;-65
2023/06/15 01:24:35;;;;;;;12.25;4.25;;;15.40;94.30;;;;;;5048751;28;20040;-65
2023/06/15 01:27:04;;;;;;;11.98;4.20;;;15.40;94.50;;;;;;5049292;28;20037;-64
2023/06/15 01:29:35;;;;;;;18.23;4.85;;;15.40;94.60;;;;;;5066060;28;20044;-65
2023/06/15 01:32:02;;;;;;;10.82;4.43;;;15.40;94.70;;;;;;5067526;28;20317;-65
2023/06/15 01:34:28;;;;;;;8.38;3.50;;;15.40;94.80;;;;;;5065013;28;20374;-65
2023/06/15 01:36:54;;;;;;;8.48;4.25;;;15.40;94.70;;;;;;5063787;28;20044;-67
2023/06/15 01:39:20;;;;;;;11.82;4.03;;;15.40;94.60;;;;;;5048157;28;20094;-67
2023/06/15 01:41:46;;;;;;;9.80;4.30;;;15.40;94.80;;;;;;5066000;28;20131;-66
2023/06/15 01:44:13;;;;;;;7.95;3.45;;;15.40;94.90;;;;;;5048808;28;20076;-65
2023/06/15 01:46:40;;;;;;;10.15;4.00;;;15.40;95.00;;;;;;5048531;28;20046;-67
2023/06/15 01:49:05;;;;;;;9.52;3.97;;;15.30;94.90;;;;;;5048527;28;20052;-67
2023/06/15 01:51:32;;;;;;;10.02;4.03;;;15.30;95.00;;;;;;5063822;28;20047;-66
2023/06/15 01:53:58;;;;;;;7.40;3.63;;;15.20;95.30;;;;;;5048091;28;20130;-66
2023/06/15 01:56:23;;;;;;;11.75;4.40;;;15.20;95.60;;;;;;5068381;28;20135;-65
2023/06/15 01:58:49;;;;;;;10.77;4.78;;;15.20;95.40;;;;;;5064821;28;20060;-64
2023/06/15 02:01:15;;;;;;;14.20;4.85;;;15.20;95.70;;;;;;5065074;28;20059;-66
2023/06/15 02:03:41;;;;;;;13.45;4.18;;;15.10;95.90;;;;;;5065164;28;20045;-66
2023/06/15 02:06:06;;;;;;;11.25;4.82;;;15.10;96.00;;;;;;5064796;28;20047;-66
2023/06/15 02:08:32;;;;;;;12.30;4.70;;;15.10;96.20;;;;;;5066609;28;20032;-66
2023/06/15 02:10:58;;;;;;;12.40;5.20;;;15.10;96.40;;;;;;5054380;28;20519;-66
2023/06/15 02:13:24;;;;;;;12.98;5.00;;;15.10;96.50;;;;;;5065115;28;20036;-67
2023/06/15 02:15:50;;;;;;;9.55;5.30;;;15.00;96.60;;;;;;5072508;28;20048;-66
2023/06/15 02:18:16;;;;;;;9.52;4.15;;;15.00;96.60;;;;;;5068234;28;20200;-66
2023/06/15 02:20:43;;;;;;;9.27;4.72;;;15.00;96.60;;;;;;5067566;28;20437;-66
2023/06/15 02:23:10;;;;;;;12.40;4.00;;;15.00;96.60;;;;;;5084728;28;20795;-66
2023/06/15 02:25:37;;;;;;;10.65;4.97;;;15.00;96.70;;;;;;5057220;28;20048;-66
2023/06/15 02:28:03;;;;;;;9.00;4.22;;;15.00;96.70;;;;;;5047823;28;20043;-65
2023/06/15 02:30:29;;;;;;;11.20;4.57;;;15.00;96.70;;;;;;5048313;28;20056;-65
2023/06/15 02:33:00;;;;;;;9.02;4.50;;;15.10;96.80;;;;;;5048084;28;20040;-65
2023/06/15 02:35:26;;;;;;;10.00;4.43;;;15.00;96.90;;;;;;5048584;28;20559;-66
2023/06/15 02:37:51;;;;;;;10.65;4.72;;;15.00;97.00;;;;;;5065010;28;20151;-65
2023/06/15 02:40:17;;;;;;;10.13;4.88;;;14.90;97.20;;;;;;5065332;28;20089;-65
2023/06/15 02:42:43;;;;;;;14.82;6.13;;;14.80;97.40;;;;;;5071122;28;20070;-65
2023/06/15 02:45:10;;;;;;;11.05;6.38;;;14.70;97.70;;;;;;5068282;28;20039;-65
2023/06/15 02:47:36;;;;;;;12.82;6.15;;;14.70;98.00;;;;;;5084278;28;20130;-67
2023/06/15 02:50:03;;;;;;;10.60;6.05;;;14.70;98.30;;;;;;5067780;28;20043;-66
2023/06/15 02:52:32;;;;;;;14.55;5.93;;;14.70;98.50;;;;;;5067945;28;20562;-65
2023/06/15 02:54:58;;;;;;;15.55;7.13;;;14.70;98.60;;;;;;5081396;28;20044;-67
2023/06/15 02:57:25;;;;;;;18.60;6.78;;;14.70;98.70;;;;;;5064217;28;20036;-66
2023/06/15 02:59:51;;;;;;;15.55;6.60;;;14.70;98.70;;;;;;5047560;28;20436;-65
2023/06/15 03:02:20;;;;;;;16.83;6.90;;;14.70;98.80;;;;;;5064066;28;20043;-67
2023/06/15 03:04:47;;;;;;;17.60;7.03;;;14.70;98.90;;;;;;5047975;28;20046;-65
2023/06/15 03:07:22;;;;;;;14.48;6.93;;;14.70;99.00;;;;;;5045922;28;20492;-64
2023/06/15 03:09:52;;;;;;;14.35;6.28;;;14.70;99.00;;;;;;5063979;28;20044;-66
2023/06/15 03:12:18;;;;;;;13.15;7.07;;;14.70;99.10;;;;;;5064706;28;20036;-66
2023/06/15 03:14:49;;;;;;;14.57;7.45;;;14.70;99.20;;;;;;5047574;28;20047;-66
2023/06/15 03:17:16;;;;;;;12.20;6.60;;;14.70;99.20;;;;;;5047157;28;20051;-65
2023/06/15 03:19:44;;;;;;;15.65;6.57;;;14.70;99.20;;;;;;5063647;28;20123;-65
2023/06/15 03:22:10;;;;;;;13.60;7.00;;;14.70;99.30;;;;;;5062085;28;20071;-64
2023/06/15 03:24:36;;;;;;;12.32;6.90;;;14.70;99.40;;;;;;5046688;28;20080;-65
2023/06/15 03:27:03;;;;;;;16.92;6.70;;;14.80;99.40;;;;;;5047219;28;20093;-65
2023/06/15 03:29:31;;;;;;;15.73;7.28;;;14.70;99.40;;;;;;5063966;28;20202;-64
2023/06/15 03:31:58;;;;;;;13.65;6.72;;;14.80;99.40;;;;;;5063751;28;20040;-65
2023/06/15 03:34:27;;;;;;;14.75;6.97;;;14.80;99.40;;;;;;5047898;28;20657;-66
2023/06/15 03:36:53;;;;;;;14.23;7.15;;;14.90;99.40;;;;;;5045524;28;20530;-66
2023/06/15 03:39:19;;;;;;;13.82;6.20;;;15.00;99.50;;;;;;5063267;28;20040;-65
2023/06/15 03:41:45;;;;;;;12.95;6.63;;;15.10;99.20;;;;;;5048139;28;20036;-65
2023/06/15 03:44:11;;;;;;;15.30;6.65;;;15.20;99.00;;;;;;5068341;28;20492;-64
2023/06/15 03:46:37;;;;;;;14.60;6.40;;;15.30;98.90;;;;;;5050934;28;20037;-65
2023/06/15 03:49:03;;;;;;;11.43;7.15;;;15.30;98.80;;;;;;5067664;28;20044;-65
2023/06/15 03:51:28;;;;;;;14.55;6.63;;;15.40;98.80;;;;;;5066602;28;20051;-63
2023/06/15 03:53:54;;;;;;;15.98;6.68;;;15.50;98.80;;;;;;5067400;28;20045;-64
2023/06/15 03:56:20;;;;;;;15.00;7.00;;;15.40;98.70;;;;;;5066137;28;20040;-64
2023/06/15 03:58:46;;;;;;;13.32;6.30;;;15.50;98.70;;;;;;5071425;28;20481;-65
2023/06/15 04:01:14;;;;;;;16.13;7.13;;;15.60;98.60;;;;;;5067963;28;20044;-66
2023/06/15 04:03:40;;;;;;;12.60;6.78;;;15.80;98.40;;;;;;5067599;28;20467;-65
2023/06/15 04:06:06;;;;;;;9.98;5.75;;;16.10;98.10;;;;;;5052710;28;20074;-66
2023/06/15 04:08:33;;;;;;;16.67;6.60;;;16.30;97.70;;;;;;5087003;28;20036;-67
2023/06/15 04:10:59;;;;;;;11.30;5.82;;;16.50;97.20;;;;;;5057517;28;20095;-65
2023/06/15 04:13:25;;;;;;;12.48;6.68;;;16.60;96.80;;;;;;5067801;28;20174;-66
2023/06/15 04:15:52;;;;;;;11.98;5.78;;;16.70;96.60;;;;;;5050740;28;20350;-66
2023/06/15 04:18:19;;;;;;;15.32;5.97;;;16.90;96.10;;;;;;5050621;28;20566;-66
2023/06/15 04:20:45;;;;;;;13.10;5.75;;;17.00;95.70;;;;;;5050019;28;20047;-66
2023/06/15 04:23:11;;;;;;;11.57;5.30;;;17.10;95.30;;;;;;5050889;28;20523;-64
2023/06/15 04:25:42;;;;;;;13.63;5.53;;;17.30;94.90;;;;;;5067573;28;20036;-66
2023/06/15 04:28:11;;;;;;;11.68;5.20;;;17.40;94.50;;;;;;5050730;28;20499;-66
2023/06/15 04:30:44;;;;;;;10.63;5.18;;;17.40;94.20;;;;;;5050654;28;20041;-63
2023/06/15 04:33:12;;;;;;;12.77;5.50;;;17.50;93.90;;;;;;5050968;28;20040;-65
2023/06/15 04:35:40;;;;;;;11.68;5.75;;;17.50;93.80;;;;;;5066016;28;20044;-65
2023/06/15 04:38:12;;;;;;;13.57;5.45;;;17.60;93.60;;;;;;5066230;28;20388;-65
2023/06/15 04:40:39;;;;;;;8.95;4.85;;;17.70;93.40;;;;;;5075800;28;20462;-65
2023/06/15 04:43:05;;;;;;;10.95;5.20;;;17.70;93.40;;;;;;5065756;28;20047;-65
2023/06/15 04:45:30;;;;;;;13.10;5.45;;;17.90;93.20;;;;;;5083545;28;20036;-66
2023/06/15 04:47:57;;;;;;;12.98;5.50;;;18.00;92.90;;;;;;5049678;28;20092;-66
2023/06/15 04:50:23;;;;;;;9.73;5.10;;;18.10;92.70;;;;;;5065793;28;20090;-66
2023/06/15 04:52:49;;;;;;;11.65;4.75;;;18.10;92.50;;;;;;5049414;28;20228;-65
2023/06/15 04:55:15;;;;;;;10.60;5.53;;;18.20;92.20;;;;;;5066247;28;20071;-67
2023/06/15 04:57:41;;;;;;;12.25;5.18;;;18.30;91.90;;;;;;5055366;28;20789;-68
2023/06/15 05:00:09;;;;;;;11.27;4.90;;;18.30;91.70;;;;;;5069853;28;20048;-67
2023/06/15 05:02:35;;;;;;;13.02;5.30;;;18.30;91.60;;;;;;5079271;28;20539;-64
2023/06/15 05:05:01;;;;;;;15.80;5.60;;;18.40;91.40;;;;;;5049795;28;20040;-66
2023/06/15 05:07:27;;;;;;;10.25;5.35;;;18.40;91.30;;;;;;5061187;28;20048;-66
2023/06/15 05:09:52;;;;;;;10.32;5.35;;;18.40;91.30;;;;;;5065909;28;20043;-68
2023/06/15 05:12:18;;;;;;;10.70;5.30;;;18.40;91.00;;;;;;5068777;28;20856;-64
2023/06/15 05:14:44;;;;;;;11.30;5.20;;;18.40;91.00;;;;;;5087203;28;20048;-63
2023/06/15 05:17:09;;;;;;;11.68;5.18;;;18.50;90.80;;;;;;5069670;28;20345;-65
2023/06/15 05:19:35;;;;;;;11.18;4.95;;;18.70;90.70;;;;;;5087940;28;20118;-64
2023/06/15 05:22:01;;;;;;;10.93;4.82;;;19.00;90.60;;;;;;5067404;28;20357;-65
2023/06/15 05:24:28;;;;;;;8.77;4.60;;;19.50;90.20;;;;;;5066598;28;20106;-65
2023/06/15 05:26:53;;;;;;;12.10;5.13;;;19.60;89.60;;;;;;5049857;28;20798;-64
2023/06/15 05:29:20;;;;;;;12.50;4.60;;;19.60;88.80;;;;;;5057425;28;20047;-70
2023/06/15 05:31:46;;;;;;;9.05;4.47;;;19.70;88.00;;;;;;5060268;28;20040;-66
2023/06/15 05:34:12;;;;;;;8.48;4.20;;;19.80;86.70;;;;;;5064057;28;20420;-67
2023/06/15 05:36:38;;;;;;;12.85;4.25;;;19.90;86.00;;;;;;5080862;28;20040;-65
2023/06/15 05:39:04;;;;;;;8.23;4.07;;;20.00;85.20;;;;;;5065396;28;20121;-66
2023/06/15 05:41:30;;;;;;;14.35;4.72;;;20.00;84.30;;;;;;5065796;28;20097;-65
2023/06/15 05:43:56;;;;;;;16.83;4.60;;;19.90;83.50;;;;;;5084124;28;20124;-67
2023/06/15 05:46:22;;;;;;;9.93;4.10;;;19.70;83.30;;;;;;5064253;28;20044;-63
2023/06/15 05:48:47;;;;;;;15.13;4.70;;;19.80;84.00;;;;;;5082338;28;20062;-65
2023/06/15 05:51:13;;;;;;;9.77;4.03;;;19.90;84.00;;;;;;5081428;28;20040;-64
2023/06/15 05:53:39;;;;;;;8.88;4.20;;;19.90;83.20;;;;;;5081910;28;20036;-67
2023/06/15 05:56:05;;;;;;;9.90;3.35;;;19.90;83.00;;;;;;5065767;28;20087;-64
2023/06/15 05:58:31;;;;;;;7.47;3.85;;;19.90;82.80;;;;;;5064619;28;20055;-67
2023/06/15 06:00:56;;;;;;;9.98;3.72;;;20.00;82.50;;;;;;5067880;28;20076;-67
2023/06/15 06:03:22;;;;;;;8.55;3.63;;;20.10;81.40;;;;;;5085647;28;20036;-66
2023/06/15 06:05:48;;;;;;;12.88;3.42;;;20.10;80.50;;;;;;5062486;28;20068;-65
2023/06/15 06:08:14;;;;;;;7.85;3.70;;;20.30;79.30;;;;;;5073621;28;20085;-64
2023/06/15 06:10:40;;;;;;;8.20;3.63;;;20.40;78.60;;;;;;5066109;28;20067;-65
2023/06/15 06:13:06;;;;;;;11.02;3.78;;;20.50;78.40;;;;;;5061973;28;20549;-65
2023/06/15 06:15:31;;;;;;;8.00;3.40;;;20.60;78.00;;;;;;5082181;28;20040;-64
2023/06/15 06:17:57;;;;;;;8.80;3.53;;;20.60;78.20;;;;;;5065515;28;20048;-65
2023/06/15 06:20:23;;;;;;;8.18;3.22;;;20.60;77.80;;;;;;5064527;28;20102;-66
2023/06/15 06:22:48;;;;;;;10.55;3.83;;;20.60;77.50;;;;;;5063624;28;20036;-65
2023/06/15 06:25:14;;;;;;;11.32;3.47;;;20.50;77.10;;;;;;5064194;28;20522;-63
2023/06/15 06:27:40;;;;;;;12.25;3.55;;;20.50;76.80;;;;;;5048032;28;20036;-64
2023/06/15 06:30:06;;;;;;;9.55;3.30;;;20.50;75.80;;;;;;5048222;28;20513;-64
2023/06/15 06:32:32;;;;;;;9.32;3.42;;;20.60;75.90;;;;;;5064153;28;20063;-64
2023/06/15 06:34:57;;;;;;;9.85;3.35;;;20.50;74.80;;;;;;5065289;28;20032;-63
2023/06/15 06:37:24;;;;;;;12.63;3.08;;;20.40;74.60;;;;;;5062999;28;20044;-66
2023/06/15 06:39:50;;;;;;;10.52;3.55;;;20.40;74.60;;;;;;5066289;28;20036;-65
2023/06/15 06:42:16;;;;;;;9.95;3.03;;;20.40;74.10;;;;;;5082615;28;20051;-64
2023/06/15 06:44:42;;;;;;;8.05;3.08;;;20.40;73.80;;;;;;5064691;28;20051;-64
2023/06/15 06:47:08;;;;;;;9.95;3.47;;;20.70;74.30;;;;;;5063939;28;20079;-66
2023/06/15 06:49:34;;;;;;;12.10;2.97;;;20.80;73.50;;;;;;5063659;28;20071;-66
2023/06/15 06:51:59;;;;;;;11.60;3.50;;;20.90;72.80;;;;;;5064058;28;20048;-66
2023/06/15 06:54:25;;;;;;;11.07;3.42;;;21.00;73.30;;;;;;5048002;28;20073;-65
2023/06/15 06:56:50;;;;;;;11.10;3.65;;;21.10;73.10;;;;;;5064126;28;20127;-64
2023/06/15 06:59:16;;;;;;;7.03;3.03;;;21.30;72.90;;;;;;5063834;28;20055;-64
2023/06/15 07:01:43;;;;;;;9.25;3.20;;;21.50;73.30;;;;;;5065755;28;20045;-67
2023/06/15 07:04:09;;;;;;;10.35;3.10;;;21.50;72.90;;;;;;5047568;28;20492;-65
2023/06/15 07:06:35;;;;;;;13.05;3.75;;;21.40;71.60;;;;;;5045833;28;20040;-64
2023/06/15 07:09:01;;;;;;;11.10;3.30;;;21.40;72.70;;;;;;5063201;28;20040;-63
2023/06/15 07:11:27;;;;;;;7.65;3.17;;;21.40;72.50;;;;;;5063755;28;20298;-64
2023/06/15 07:13:53;;;;;;;13.15;3.55;;;21.50;72.20;;;;;;5064279;28;20064;-64
2023/06/15 07:16:19;;;;;;;8.68;3.00;;;21.50;72.30;;;;;;5046389;28;20076;-69
2023/06/15 07:18:45;;;;;;;9.52;3.22;;;21.60;72.30;;;;;;5063991;28;20278;-67
2023/06/15 07:21:11;;;;;;;6.07;3.05;;;21.60;72.40;;;;;;5062767;28;20499;-65
2023/06/15 07:23:37;;;;;;;9.45;3.00;;;21.70;72.20;;;;;;5063140;28;20048;-65
2023/06/15 07:26:02;;;;;;;6.13;2.95;;;21.80;72.20;;;;;;5063760;28;20036;-68
2023/06/15 07:28:28;;;;;;;6.18;2.90;;;21.80;71.70;;;;;;5063377;28;20548;-64
2023/06/15 07:30:54;;;;;;;10.75;3.10;;;21.80;71.40;;;;;;5063486;28;20043;-64
2023/06/15 07:33:20;;;;;;;9.23;3.33;;;21.90;71.60;;;;;;5047287;28;20044;-67
2023/06/15 07:35:46;;;;;;;9.13;3.38;;;21.80;69.40;;;;;;5062901;28;20059;-66
2023/06/15 07:38:14;;;;;;;10.27;3.40;;;21.80;69.60;;;;;;5063372;28;20044;-64
2023/06/15 07:40:40;;;;;;;7.22;3.05;;;21.80;69.80;;;;;;5047574;28;20058;-64
2023/06/15 07:43:06;;;;;;;11.55;2.90;;;21.90;70.10;;;;;;5063840;28;20053;-63
2023/06/15 07:45:31;;;;;;;7.97;2.83;;;22.00;69.30;;;;;;5063871;28;20040;-68
2023/06/15 07:47:57;;;;;;;12.40;3.22;;;21.90;69.10;;;;;;5047216;28;20495;-63
2023/06/15 07:50:23;;;;;;;8.55;2.95;;;22.10;69.10;;;;;;5063672;28;20694;-67
2023/06/15 07:52:51;;;;;;;9.10;2.92;;;22.10;69.40;;;;;;5046651;28;20064;-64
2023/06/15 07:55:17;;;;;;;8.25;2.95;;;22.30;70.10;;;;;;5069546;28;20042;-69
2023/06/15 07:57:46;;;;;;;16.10;3.30;;;22.40;69.70;;;;;;5078403;28;20131;-68
2023/06/15 08:00:12;;;;;;;15.07;3.30;;;22.30;67.50;;;;;;5047099;28;20392;-68
2023/06/15 08:02:38;;;;;;;8.88;3.17;;;22.30;67.50;;;;;;5063174;28;20255;-68
2023/06/15 08:05:04;;;;;;;8.40;2.72;;;22.20;67.60;;;;;;5047094;28;20045;-65
2023/06/15 08:07:30;;;;;;;10.60;3.17;;;22.20;67.60;;;;;;5061181;28;20124;-64
2023/06/15 08:09:56;;;;;;;8.48;3.58;;;22.30;68.10;;;;;;5049119;28;20093;-67
2023/06/15 08:12:22;;;;;;;7.22;3.05;;;22.40;67.90;;;;;;5081323;28;20149;-67
2023/06/15 08:14:47;;;;;;;10.25;3.40;;;22.50;67.90;;;;;;5080866;28;20044;-63
2023/06/15 08:17:13;;;;;;;7.90;2.97;;;22.50;67.90;;;;;;5046688;28;20097;-69
2023/06/15 08:19:39;;;;;;;8.70;2.60;;;22.60;68.10;;;;;;5063813;28;20048;-67
2023/06/15 08:22:05;;;;;;;9.88;3.00;;;22.70;67.90;;;;;;5045337;28;20044;-65
2023/06/15 08:24:31;;;;;;;8.02;3.08;;;22.70;68.00;;;;;;5063164;28;20038;-65
2023/06/15 08:26:57;;;;;;;11.90;3.42;;;22.80;67.80;;;;;;5083356;28;20667;-66
2023/06/15 08:29:22;;;;;;;7.32;3.38;;;22.80;67.10;;;;;;5068685;28;20036;-64
2023/06/15 08:31:48;;;;;;;10.65;3.35;;;22.80;67.00;;;;;;5087382;28;20040;-66
2023/06/15 08:34:14;;;;;;;6.32;3.03;;;22.80;67.30;;;;;;5087799;28;20131;-64
2023/06/15 08:36:40;;;;;;;11.38;3.05;;;22.70;67.20;;;;;;5050046;28;20040;-66
2023/06/15 08:39:05;;;;;;;8.93;3.85;;;22.80;67.50;;;;;;5066437;28;20109;-67
2023/06/15 08:41:33;;;;;;;7.18;2.90;;;22.80;67.30;;;;;;5050545;28;20105;-67
2023/06/15 08:43:59;;;;;;;12.18;3.45;;;22.80;67.00;;;;;;5066895;28;20429;-65
2023/06/15 08:46:25;;;;;;;7.57;3.08;;;22.70;66.40;;;;;;5067069;28;20587;-66
2023/06/15 08:48:52;;;;;;;8.80;2.75;;;22.70;66.70;;;;;;5050415;28;20123;-66
2023/06/15 08:51:21;;;;;;;6.30;2.88;;;22.80;66.00;;;;;;5065505;28;20048;-67
2023/06/15 08:53:48;;;;;;;7.53;2.83;;;22.90;66.10;;;;;;5065762;28;20170;-65
2023/06/15 08:56:16;;;;;;;7.45;3.15;;;22.80;65.70;;;;;;5080303;28;20046;-65
2023/06/15 08:58:49;;;;;;;7.95;3.15;;;22.80;66.20;;;;;;5056326;28;20178;-66
2023/06/15 09:01:22;;;;;;;7.05;3.03;;;22.90;66.60;;;;;;5067046;28;20606;-64
2023/06/15 09:03:51;;;;;;;9.52;3.08;;;23.00;66.20;;;;;;5066653;28;20079;-68
2023/06/15 09:06:18;;;;;;;7.35;3.05;;;23.10;66.50;;;;;;5065236;28;20071;-69
2023/06/15 09:08:44;;;;;;;8.88;2.80;;;23.20;65.90;;;;;;5065413;28;20051;-69
2023/06/15 09:11:10;;;;;;;8.48;2.67;;;23.30;64.90;;;;;;5066462;28;20045;-66
2023/06/15 09:13:36;;;;;;;7.75;2.80;;;23.40;64.90;;;;;;5066314;28;20407;-66
2023/06/15 09:16:03;;;;;;;7.75;2.85;;;23.40;64.80;;;;;;5066575;28;20129;-66
2023/06/15 09:18:29;;;;;;;7.68;2.72;;;23.40;64.20;;;;;;5065326;28;20091;-67
2023/06/15 09:21:00;;;;;;;28.63;4.20;;;23.50;64.90;;;;;;5065316;28;20075;-67
2023/06/15 09:23:26;;;;;;;9.57;3.20;;;23.60;64.20;;;;;;5092020;28;20048;-67
2023/06/15 09:25:52;;;;;;;7.05;2.70;;;23.50;63.40;;;;;;5084276;28;20043;-67
2023/06/15 09:28:26;;;;;;;6.85;2.60;;;23.40;63.00;;;;;;5075681;28;20080;-72
2023/06/15 09:30:55;;;;;;;53.97;5.30;;;23.30;62.80;;;;;;5049706;28;20424;-66
2023/06/15 09:33:21;;;;;;;7.00;3.00;;;23.40;63.90;;;;;;5065994;28;20193;-66
2023/06/15 09:36:00;;;;;;;7.50;2.60;;;23.50;63.00;;;;;;5064924;28;20056;-68
2023/06/15 09:38:43;;;;;;;7.90;2.90;;;23.40;62.20;;;;;;5048787;28;20340;-65
2023/06/15 09:41:10;;;;;;;8.23;2.83;;;23.50;62.40;;;;;;5071891;28;20040;-67
2023/06/15 09:43:40;;;;;;;8.95;2.65;;;23.70;63.50;;;;;;5065825;28;20045;-68
2023/06/15 09:46:13;;;;;;;8.43;2.75;;;23.90;64.00;;;;;;5065945;28;20040;-63
2023/06/15 09:48:40;;;;;;;6.97;2.97;;;23.80;60.70;;;;;;5065555;28;20575;-68
2023/06/15 09:51:06;;;;;;;9.35;3.22;;;23.80;61.30;;;;;;5047874;28;20052;-68
2023/06/15 09:53:33;;;;;;;7.60;2.65;;;23.70;60.20;;;;;;5065437;28;20051;-64
2023/06/15 09:56:00;;;;;;;24.73;4.45;;;23.70;60.50;;;;;;5049031;28;20466;-67
2023/06/15 09:58:26;;;;;;;9.82;3.20;;;23.60;59.80;;;;;;5074782;28;20044;-69
2023/06/15 10:00:57;;;;;;;7.20;2.95;;;23.60;60.10;;;;;;5085537;28;20412;-67
2023/06/15 10:03:25;;;;;;;7.28;3.28;;;23.60;60.20;;;;;;5071664;28;20519;-69
2023/06/15 10:05:59;;;;;;;8.45;3.42;;;23.80;60.50;;;;;;5075514;28;20045;-70
2023/06/15 10:08:26;;;;;;;10.50;3.05;;;23.80;59.80;;;;;;5081649;28;20527;-69
2023/06/15 10:10:57;;;;;;;9.10;3.20;;;23.90;59.80;;;;;;5064767;28;20117;-68
2023/06/15 10:13:31;;;;;;;9.60;2.90;;;24.00;59.90;;;;;;5065115;28;20043;-64
2023/06/15 10:15:58;;;;;;;12.05;3.03;;;24.00;59.00;;;;;;5064808;28;20213;-68
2023/06/15 10:18:27;;;;;;;10.18;2.80;;;24.00;58.40;;;;;;5064643;28;20048;-65
2023/06/15 10:20:54;;;;;;;8.88;2.88;;;24.00;57.90;;;;;;5063631;28;20055;-65
2023/06/15 10:23:25;;;;;;;9.82;2.80;;;23.90;58.70;;;;;;5064692;28;20783;-65
2023/06/15 10:25:57;;;;;;;10.18;3.58;;;23.90;59.50;;;;;;5048448;28;20781;-68
2023/06/15 10:28:28;;;;;;;9.15;2.97;;;24.10;59.70;;;;;;5058739;28;20491;-67
2023/06/15 10:31:04;;;;;;;7.07;2.85;;;24.20;59.70;;;;;;5082285;28;20080;-64
2023/06/15 10:33:38;;;;;;;8.73;2.92;;;24.50;59.00;;;;;;5064879;28;20051;-70
2023/06/15 10:36:12;;;;;;;8.85;2.90;;;24.50;58.20;;;;;;5046581;28;20052;-68
2023/06/15 10:38:51;;;;;;;9.95;3.17;;;24.50;58.40;;;;;;5063882;28;20048;-69
2023/06/15 10:41:18;;;;;;;12.52;3.50;;;24.50;58.10;;;;;;5048041;28;20049;-65
2023/06/15 10:44:01;;;;;;;7.43;2.95;;;24.40;58.00;;;;;;5065280;28;20098;-65
2023/06/15 10:46:29;;;;;;;6.93;2.70;;;24.30;57.70;;;;;;5072157;28;20039;-67
2023/06/15 10:48:55;;;;;;;7.32;3.00;;;24.30;58.50;;;;;;5084382;28;20040;-69
2023/06/15 10:51:21;;;;;;;8.23;2.83;;;24.40;57.90;;;;;;5065964;28;20051;-71
2023/06/15 10:53:47;;;;;;;9.30;3.20;;;24.30;57.60;;;;;;5082503;28;20555;-64
2023/06/15 10:56:15;;;;;;;7.32;2.55;;;24.40;55.70;;;;;;5070230;28;20388;-67
2023/06/15 10:59:07;;;;;;;6.65;2.70;;;24.40;54.60;;;;;;5047022;28;20051;-65
2023/06/15 11:01:33;;;;;;;5.60;2.80;;;24.50;54.60;;;;;;5047471;28;20286;-66
2023/06/15 11:04:01;;;;;;;7.85;3.00;;;24.70;56.70;;;;;;5047641;28;20138;-68
2023/06/15 11:06:34;;;;;;;8.98;2.90;;;24.90;56.90;;;;;;5055773;28;20098;-68
2023/06/15 11:09:07;;;;;;;7.28;2.92;;;24.90;55.40;;;;;;5063177;28;20036;-69
2023/06/15 11:11:36;;;;;;;7.43;2.90;;;24.70;55.40;;;;;;5059578;28;20119;-66
2023/06/15 11:14:21;;;;;;;10.10;2.67;;;24.80;55.10;;;;;;5064906;28;20056;-69
2023/06/15 11:17:04;;;;;;;6.85;2.97;;;24.70;55.30;;;;;;5062908;28;20355;-66
2023/06/15 11:19:30;;;;;;;10.20;2.80;;;24.80;55.80;;;;;;5064635;28;20052;-63
2023/06/15 11:22:01;;;;;;;9.35;3.10;;;24.70;55.40;;;;;;5062837;28;20276;-69
2023/06/15 11:24:34;;;;;;;8.23;2.83;;;24.60;54.80;;;;;;5063939;28;20045;-65
2023/06/15 11:27:04;;;;;;;8.18;3.30;;;24.50;54.70;;;;;;5062834;28;20043;-66
2023/06/15 11:29:33;;;;;;;9.27;2.97;;;24.50;55.20;;;;;;5082464;28;20047;-69
2023/06/15 11:32:03;;;;;;;7.45;2.95;;;24.70;55.80;;;;;;5083741;28;20485;-66
2023/06/15 11:34:30;;;;;;;8.68;2.78;;;24.80;55.90;;;;;;5061848;28;20044;-66
2023/06/15 11:37:00;;;;;;;5.95;2.90;;;25.00;55.50;;;;;;5062261;28;20128;-64
2023/06/15 11:39:27;;;;;;;9.00;3.28;;;25.00;54.30;;;;;;5064038;28;20458;-64
2023/06/15 11:41:53;;;;;;;8.75;2.95;;;24.90;54.70;;;;;;5064819;28;20475;-67
2023/06/15 11:44:21;;;;;;;6.75;2.97;;;24.90;54.80;;;;;;5063804;28;20470;-67
2023/06/15 11:47:00;;;;;;;7.70;3.10;;;24.90;54.30;;;;;;5063055;28;20050;-67
2023/06/15 11:49:37;;;;;;;7.63;2.75;;;24.90;54.60;;;;;;5049668;28;20029;-70
2023/06/15 11:52:05;;;;;;;8.20;2.83;;;25.10;55.00;;;;;;5045220;28;20441;-70
2023/06/15 11:54:31;;;;;;;8.90;3.00;;;25.10;54.20;;;;;;5063685;28;20500;-66
2023/06/15 11:56:57;;;;;;;7.47;2.95;;;25.10;53.90;;;;;;5063236;28;20052;-69
2023/06/15 11:59:24;;;;;;;8.95;3.10;;;25.10;54.30;;;;;;5047457;28;20067;-67
2023/06/15 12:01:51;;;;;;;10.38;3.20;;;25.20;55.10;;;;;;5063449;28;20088;-68
2023/06/15 12:04:17;;;;;;;7.07;3.30;;;25.20;53.80;;;;;;5052667;28;20468;-63
2023/06/15 12:06:43;;;;;;;7.18;2.83;;;25.10;53.30;;;;;;5079989;28;20036;-67
2023/06/15 12:09:10;;;;;;;7.40;2.70;;;25.10;53.50;;;;;;5067130;28;20037;-66
2023/06/15 12:11:37;;;;;;;7.65;3.42;;;25.10;53.20;;;;;;5067590;28;20048;-69
2023/06/15 12:14:06;;;;;;;7.15;2.92;;;25.10;52.90;;;;;;5082324;28;20052;-70
2023/06/15 12:16:33;;;;;;;8.75;2.80;;;25.10;52.80;;;;;;5066671;28;20032;-67
2023/06/15 12:18:59;;;;;;;8.40;3.20;;;25.10;53.30;;;;;;5050757;28;20044;-68
2023/06/15 12:21:46;;;;;;;6.30;2.97;;;25.20;53.20;;;;;;5066187;28;20075;-66
2023/06/15 12:24:16;;;;;;;13.05;3.53;;;25.20;52.50;;;;;;5066932;28;20041;-69
2023/06/15 12:26:51;;;;;;;7.20;3.25;;;25.20;53.40;;;;;;5049938;28;20090;-69
2023/06/15 12:29:19;;;;;;;10.68;3.30;;;25.20;52.80;;;;;;5067619;28;20044;-64
2023/06/15 12:31:53;;;;;;;8.35;2.95;;;25.10;52.90;;;;;;5050120;28;20090;-63
2023/06/15 12:34:24;;;;;;;;;;;25.10;52.80;;;;;;5050963;28;20105;-66
2023/06/15 12:36:50;;;;;;;9.68;3.63;;;25.10;52.20;;;;;;5064734;28;20745;-72
2023/06/15 12:39:18;;;;;;;7.88;2.60;;;25.00;52.40;;;;;;5066557;28;20049;-67
2023/06/15 12:41:44;;;;;;;9.25;2.80;;;25.00;52.50;;;;;;5066976;28;20051;-65
2023/06/15 12:44:11;;;;;;;6.38;2.88;;;24.90;52.20;;;;;;5068795;28;20072;-66